Neck City, Missouri
Current Conditions -  °F | °C
As of 2:53 AM on Thursday 23 Oct 2014 (Local Time) from KJLN Reporting Station
Clear Clear  
Wind Chill: 59°   Ceiling: Unl
Heat Index: 59°   Visibility: 10mi
Dew Point: 51°   Wind: 5mph
Humidity: 75%   Direction: 140°SE
Pressure: 30.13"   Gusts: NA
Location:  37.26°N, 94.44°W
Report Text: KJLN 230753Z AUTO 14004KT 10SM CLR 15/11 A3013 RMK AO2 SLP195 T01500106
Loading
Personal Weather Stations






























Interactive Weather Map
Tropical Storm Tracking
New forecast layout! Learn more

10-Day Weather Forecast

Advertisements
Track Severe Weather on mobile